Time;durP1;ratioP1;P1;durP2;ratioP2;P2;SDS_P1;SDS_P2;PMS_P1;PMS_P2;Temp;Humidity;BMP_temperature;BMP_pressure;BME280_temperature;BME280_humidity;BME280_pressure;Samples;Min_cycle;Max_cycle;Signal;HPM_P1;HPM_P2
2023/08/02 00:02:07;;;;;;;;;;;17.20;99.90;;;;;;4971001;28;19929;-59
2023/08/02 00:04:34;;;;;;;;;;;17.20;99.90;;;;;;4971773;28;19922;-58
2023/08/02 00:07:01;;;;;;;;;;;17.20;99.90;;;;;;4626127;28;10000954;-59
2023/08/02 00:09:29;;;;;;;;;;;17.20;99.90;;;;;;4968446;28;20037;-59
2023/08/02 00:11:56;;;;;;;;;;;17.20;99.90;;;;;;4969280;28;19977;-59
2023/08/02 00:14:22;;;;;;;;;;;17.20;99.90;;;;;;4971745;28;19977;-59
2023/08/02 00:16:49;;;;;;;;;;;17.30;99.90;;;;;;4971068;28;20313;-59
2023/08/02 00:19:16;;;;;;;;;;;17.30;99.90;;;;;;4971490;28;19976;-59
2023/08/02 00:21:43;;;;;;;;;;;17.30;99.90;;;;;;4971175;28;19936;-59
2023/08/02 00:24:09;;;;;;;;;;;17.40;99.90;;;;;;4971588;28;19953;-59
2023/08/02 00:26:36;;;;;;;;;;;17.40;99.90;;;;;;4969992;28;19933;-59
2023/08/02 00:29:06;;;;;;;;;;;17.30;99.90;;;;;;4969660;28;19922;-59
2023/08/02 00:31:33;;;;;;;;;;;17.20;99.90;;;;;;4972424;28;19949;-59
2023/08/02 00:33:59;;;;;;;;;;;17.20;99.90;;;;;;4970590;28;19922;-59
2023/08/02 00:36:26;;;;;;;;;;;17.30;99.90;;;;;;4971181;28;19933;-60
2023/08/02 00:38:53;;;;;;;;;;;17.30;99.90;;;;;;4985385;28;20344;-60
2023/08/02 00:41:20;;;;;;;;;;;17.30;99.90;;;;;;4969684;28;19929;-59
2023/08/02 00:43:47;;;;;;;;;;;17.30;99.90;;;;;;4970745;28;19930;-60
2023/08/02 00:46:14;;;;;;;;;;;17.30;99.90;;;;;;4972089;28;20304;-59
2023/08/02 00:48:42;;;;;;;;;;;17.30;99.90;;;;;;4970389;28;19930;-60
2023/08/02 00:51:14;;;;;;;;;;;17.30;99.90;;;;;;4970712;28;19929;-60
2023/08/02 00:53:44;;;;;;;;;;;17.30;99.90;;;;;;4968937;28;19981;-60
2023/08/02 00:56:11;;;;;;;;;;;17.40;99.90;;;;;;4970817;28;19922;-59
2023/08/02 00:58:38;;;;;;;;;;;17.30;99.90;;;;;;4985177;28;19922;-61
2023/08/02 01:01:08;;;;;;;;;;;17.30;99.90;;;;;;4971007;28;19922;-60
2023/08/02 01:03:35;;;;;;;;;;;17.30;99.90;;;;;;4970041;28;19922;-60
2023/08/02 01:06:05;;;;;;;;;;;17.20;99.90;;;;;;4970243;28;19929;-61
2023/08/02 01:08:33;;;;;;;;;;;17.20;99.90;;;;;;4968999;28;19922;-60
2023/08/02 01:11:19;;;;;;;;;;;17.20;99.90;;;;;;4969309;28;19965;-59
2023/08/02 01:13:49;;;;;;;;;;;17.10;99.90;;;;;;4969980;28;19934;-60
2023/08/02 01:16:16;;;;;;;;;;;17.10;99.90;;;;;;4971355;28;19922;-60
2023/08/02 01:18:43;;;;;;;;;;;17.10;99.90;;;;;;4970114;28;19929;-59
2023/08/02 01:21:10;;;;;;;;;;;17.10;99.90;;;;;;4970285;28;19984;-59
2023/08/02 01:23:36;;;;;;;;;;;17.00;99.90;;;;;;4969219;28;20210;-60
2023/08/02 01:26:03;;;;;;;;;;;17.00;99.90;;;;;;4968662;28;19928;-60
2023/08/02 01:28:30;;;;;;;;;;;17.00;99.90;;;;;;4968978;28;20377;-60
2023/08/02 01:30:57;;;;;;;;;;;17.00;99.90;;;;;;4967922;28;19929;-60
2023/08/02 01:33:24;;;;;;;;;;;17.00;99.90;;;;;;4968815;28;19932;-59
2023/08/02 01:35:51;;;;;;;;;;;17.00;99.90;;;;;;4968522;28;19981;-59
2023/08/02 01:38:17;;;;;;;;;;;17.10;99.90;;;;;;4969152;28;19941;-59
2023/08/02 01:40:44;;;;;;;;;;;17.00;99.90;;;;;;4969706;28;19949;-59
2023/08/02 01:43:11;;;;;;;;;;;17.00;99.90;;;;;;4970032;28;19926;-59
2023/08/02 01:45:38;;;;;;;;;;;17.00;99.90;;;;;;4969943;28;19922;-59
2023/08/02 01:48:04;;;;;;;;;;;17.10;99.90;;;;;;4969977;28;20009;-58
2023/08/02 01:50:31;;;;;;;;;;;17.10;99.90;;;;;;4969176;28;19977;-58
2023/08/02 01:52:58;;;;;;;;;;;17.10;99.90;;;;;;4969880;28;19933;-59
2023/08/02 01:55:24;;;;;;;;;;;17.10;99.90;;;;;;4968732;28;20368;-59
2023/08/02 01:57:51;;;;;;;;;;;17.00;99.90;;;;;;4969906;28;19922;-59
2023/08/02 02:00:18;;;;;;;;;;;17.00;99.90;;;;;;4969044;28;19984;-59
2023/08/02 02:02:44;;;;;;;;;;;16.90;99.90;;;;;;4970619;28;19922;-59
2023/08/02 02:05:11;;;;;;;;;;;16.80;99.90;;;;;;4967537;28;19977;-59
2023/08/02 02:07:38;;;;;;;;;;;16.80;99.90;;;;;;4969561;28;19926;-58
2023/08/02 02:10:05;;;;;;;;;;;16.70;99.90;;;;;;4969550;28;19928;-59
2023/08/02 02:12:32;;;;;;;;;;;16.60;99.90;;;;;;4969418;28;19929;-58
2023/08/02 02:14:58;;;;;;;;;;;16.70;99.90;;;;;;4969463;28;19922;-59
2023/08/02 02:17:25;;;;;;;;;;;16.60;99.90;;;;;;4969956;28;20354;-59
2023/08/02 02:19:52;;;;;;;;;;;16.60;99.90;;;;;;4969391;28;19928;-59
2023/08/02 02:22:19;;;;;;;;;;;16.60;99.90;;;;;;4969056;28;19933;-59
2023/08/02 02:24:45;;;;;;;;;;;16.60;99.90;;;;;;4969488;28;19928;-59
2023/08/02 02:27:12;;;;;;;;;;;16.60;99.90;;;;;;4969234;28;19929;-59
2023/08/02 02:29:39;;;;;;;;;;;16.60;99.90;;;;;;4969120;28;20313;-59
2023/08/02 02:32:06;;;;;;;;;;;16.60;99.90;;;;;;4968778;28;19929;-59
2023/08/02 02:34:32;;;;;;;;;;;16.60;99.90;;;;;;4972326;28;20408;-59
2023/08/02 02:36:59;;;;;;;;;;;16.60;99.90;;;;;;4982687;28;19934;-59
2023/08/02 02:39:26;;;;;;;;;;;16.60;99.90;;;;;;4967274;28;20388;-59
2023/08/02 02:41:53;;;;;;;;;;;16.60;99.90;;;;;;4969121;28;19922;-59
2023/08/02 02:44:19;;;;;;;;;;;16.60;99.90;;;;;;4970900;28;19977;-59
2023/08/02 02:46:46;;;;;;;;;;;16.70;99.90;;;;;;4971719;28;19929;-61
2023/08/02 02:49:13;;;;;;;;;;;16.70;99.90;;;;;;4972478;28;20460;-59
2023/08/02 02:51:39;;;;;;;;;;;16.70;99.90;;;;;;4972164;28;19930;-59
2023/08/02 02:54:06;;;;;;;;;;;16.70;99.90;;;;;;4971799;28;19976;-59
2023/08/02 02:56:33;;;;;;;;;;;16.70;99.90;;;;;;4973071;28;19928;-59
2023/08/02 02:59:00;;;;;;;;;;;16.70;99.90;;;;;;4972132;28;19956;-59
2023/08/02 03:01:27;;;;;;;;;;;16.70;99.90;;;;;;4972676;28;19929;-59
2023/08/02 03:03:53;;;;;;;;;;;16.70;99.90;;;;;;4972161;28;19922;-59
2023/08/02 03:06:21;;;;;;;;;;;16.70;99.90;;;;;;4971536;28;19977;-59
2023/08/02 03:08:48;;;;;;;;;;;16.70;99.90;;;;;;4972369;28;19969;-59
2023/08/02 03:11:14;;;;;;;;;;;16.80;99.90;;;;;;4971993;28;19929;-58
2023/08/02 03:13:43;;;;;;;;;;;16.80;99.90;;;;;;4971761;28;19925;-59
2023/08/02 03:16:10;;;;;;;;;;;16.80;99.90;;;;;;4972454;28;19929;-60
2023/08/02 03:18:37;;;;;;;;;;;16.80;99.90;;;;;;4971263;28;19922;-58
2023/08/02 03:21:03;;;;;;;;;;;16.80;99.90;;;;;;4971777;28;19930;-59
2023/08/02 03:23:30;;;;;;;;;;;16.90;99.90;;;;;;4971776;28;20422;-59
2023/08/02 03:25:57;;;;;;;;;;;16.90;99.90;;;;;;4986981;28;19933;-59
2023/08/02 03:28:24;;;;;;;;;;;16.90;99.90;;;;;;4970781;28;20440;-57
2023/08/02 03:30:53;;;;;;;;;;;17.00;99.90;;;;;;4971166;28;19941;-60
2023/08/02 03:33:19;;;;;;;;;;;17.00;99.90;;;;;;4970583;28;19977;-60
2023/08/02 03:35:46;;;;;;;;;;;17.00;99.90;;;;;;4971263;28;19926;-60
2023/08/02 03:38:13;;;;;;;;;;;17.00;99.90;;;;;;4971367;28;20381;-60
2023/08/02 03:40:40;;;;;;;;;;;17.00;99.90;;;;;;4970804;28;20522;-60
2023/08/02 03:43:06;;;;;;;;;;;17.10;99.90;;;;;;4970278;28;19922;-60
2023/08/02 03:45:33;;;;;;;;;;;17.10;99.90;;;;;;4969471;28;19929;-60
2023/08/02 03:48:00;;;;;;;;;;;17.20;99.90;;;;;;4970221;28;19929;-61
2023/08/02 03:50:27;;;;;;;;;;;17.20;99.90;;;;;;4970503;28;20425;-60
2023/08/02 03:52:53;;;;;;;;;;;17.20;99.90;;;;;;4970877;28;19922;-60
2023/08/02 03:55:20;;;;;;;;;;;17.20;99.90;;;;;;4970827;28;19926;-60
2023/08/02 03:57:47;;;;;;;;;;;17.30;99.90;;;;;;4971126;28;19922;-60
2023/08/02 04:00:14;;;;;;;;;;;17.20;99.90;;;;;;4970838;28;19926;-60
2023/08/02 04:02:40;;;;;;;;;;;17.30;99.90;;;;;;4971823;28;19929;-60
2023/08/02 04:05:07;;;;;;;;;;;17.30;99.90;;;;;;4963043;28;19977;-60
2023/08/02 04:07:34;;;;;;;;;;;17.40;99.90;;;;;;4957700;28;19925;-60
2023/08/02 04:10:01;;;;;;;;;;;17.40;99.90;;;;;;4970975;28;19922;-60
2023/08/02 04:12:27;;;;;;;;;;;17.50;99.90;;;;;;4971431;28;19922;-60
2023/08/02 04:14:54;;;;;;;;;;;17.50;99.90;;;;;;4971123;28;19985;-60
2023/08/02 04:17:21;;;;;;;;;;;17.50;99.90;;;;;;4971616;28;20070;-61
2023/08/02 04:19:48;;;;;;;;;;;17.60;99.90;;;;;;4970485;28;20304;-61
2023/08/02 04:22:14;;;;;;;;;;;17.60;99.90;;;;;;4970940;28;19922;-60
2023/08/02 04:24:41;;;;;;;;;;;17.70;99.90;;;;;;4971492;28;19922;-59
2023/08/02 04:27:08;;;;;;;;;;;17.70;99.90;;;;;;4970691;28;20296;-58
2023/08/02 04:29:34;;;;;;;;;;;17.70;99.90;;;;;;4971116;28;19922;-59
2023/08/02 04:32:01;;;;;;;;;;;17.80;99.90;;;;;;4970451;28;19921;-59
2023/08/02 04:34:28;;;;;;;;;;;17.80;99.90;;;;;;4971013;28;19922;-60
2023/08/02 04:36:55;;;;;;;;;;;17.80;99.90;;;;;;4970277;28;20176;-60
2023/08/02 04:39:22;;;;;;;;;;;17.80;99.90;;;;;;4970840;28;19969;-60
2023/08/02 04:41:55;;;;;;;;;;;17.80;99.90;;;;;;4970194;28;19922;-60
2023/08/02 04:44:22;;;;;;;;;;;17.80;99.90;;;;;;4970429;28;20369;-60
2023/08/02 04:46:48;;;;;;;;;;;17.80;99.90;;;;;;4969839;28;20337;-60
2023/08/02 04:49:15;;;;;;;;;;;17.80;99.90;;;;;;4968554;28;20000;-60
2023/08/02 04:51:42;;;;;;;;;;;17.80;99.90;;;;;;4969362;28;20332;-60
2023/08/02 04:54:08;;;;;;;;;;;17.80;99.90;;;;;;4970918;28;19922;-60
2023/08/02 04:56:35;;;;;;;;;;;17.80;99.90;;;;;;4969685;28;21432;-61
2023/08/02 04:59:02;;;;;;;;;;;17.90;99.90;;;;;;4970411;28;19922;-61
2023/08/02 05:01:29;;;;;;;;;;;17.90;99.90;;;;;;4969725;28;19969;-60
2023/08/02 05:03:55;;;;;;;;;;;17.90;99.90;;;;;;4970396;28;19944;-60
2023/08/02 05:06:22;;;;;;;;;;;18.00;99.90;;;;;;4970291;28;19988;-61
2023/08/02 05:08:49;;;;;;;;;;;17.90;99.90;;;;;;4970423;28;19922;-61
2023/08/02 05:11:16;;;;;;;;;;;18.00;99.90;;;;;;4969634;28;19922;-60
2023/08/02 05:13:42;;;;;;;;;;;18.00;99.90;;;;;;4969665;28;20370;-60
2023/08/02 05:16:12;;;;;;;;;;;18.00;99.90;;;;;;4969484;28;20212;-60
2023/08/02 05:18:39;;;;;;;;;;;18.00;99.90;;;;;;4968566;28;19926;-60
2023/08/02 05:21:11;;;;;;;;;;;18.10;99.90;;;;;;4970303;28;19922;-60
2023/08/02 05:23:37;;;;;;;;;;;18.00;99.90;;;;;;4969758;28;19922;-60
2023/08/02 05:26:04;;;;;;;;;;;18.10;99.90;;;;;;4969922;28;19928;-60
2023/08/02 05:28:31;;;;;;;;;;;18.10;99.90;;;;;;4969268;28;20366;-60
2023/08/02 05:30:58;;;;;;;;;;;18.10;99.90;;;;;;4970220;28;19929;-60
2023/08/02 05:33:25;;;;;;;;;;;18.10;99.90;;;;;;4969614;28;19929;-60
2023/08/02 05:35:52;;;;;;;;;;;18.10;99.90;;;;;;4970079;28;19952;-60
2023/08/02 05:38:18;;;;;;;;;;;18.10;99.90;;;;;;4969327;28;19926;-60
2023/08/02 05:40:45;;;;;;;;;;;18.10;99.90;;;;;;4969555;28;19922;-60
2023/08/02 05:43:12;;;;;;;;;;;18.10;99.90;;;;;;4968735;28;19938;-61
2023/08/02 05:45:38;;;;;;;;;;;18.20;99.90;;;;;;4969282;28;20294;-60
2023/08/02 05:48:05;;;;;;;;;;;18.20;99.90;;;;;;4967628;28;19922;-60
2023/08/02 05:50:32;;;;;;;;;;;18.10;99.90;;;;;;4969160;28;19965;-60
2023/08/02 05:52:59;;;;;;;;;;;18.20;99.90;;;;;;4969016;28;19922;-60
2023/08/02 05:55:26;;;;;;;;;;;18.20;99.90;;;;;;4969616;28;19922;-59
2023/08/02 05:57:52;;;;;;;;;;;18.10;99.90;;;;;;4978731;28;19929;-58
2023/08/02 06:00:19;;;;;;;;;;;18.20;99.90;;;;;;4630572;28;10000210;-59
2023/08/02 06:02:46;;;;;;;;;;;18.20;99.90;;;;;;4966228;28;19922;-60
2023/08/02 06:05:13;;;;;;;;;;;18.20;99.90;;;;;;4965983;28;19926;-60
2023/08/02 06:07:40;;;;;;;;;;;18.20;99.90;;;;;;4966540;28;19930;-60
2023/08/02 06:10:06;;;;;;;;;;;18.20;99.90;;;;;;4970345;28;20325;-60
2023/08/02 06:12:33;;;;;;;;;;;18.10;99.90;;;;;;4978705;28;19930;-61
2023/08/02 06:15:00;;;;;;;;;;;18.10;99.90;;;;;;4975965;28;19926;-60
2023/08/02 06:17:27;;;;;;;;;;;18.10;99.90;;;;;;4978773;28;19933;-61
2023/08/02 06:19:53;;;;;;;;;;;18.20;99.90;;;;;;4973555;28;19961;-61
2023/08/02 06:22:20;;;;;;;;;;;18.20;99.90;;;;;;4985024;28;19926;-62
2023/08/02 06:24:47;;;;;;;;;;;18.20;99.90;;;;;;4978138;28;19922;-61
2023/08/02 06:27:14;;;;;;;;;;;18.10;99.90;;;;;;4969878;28;19941;-61
2023/08/02 06:29:41;;;;;;;;;;;18.20;99.90;;;;;;4969678;28;19926;-61
2023/08/02 06:32:07;;;;;;;;;;;18.20;99.90;;;;;;4970148;28;19929;-60
2023/08/02 06:34:34;;;;;;;;;;;18.20;99.90;;;;;;4969343;28;19926;-60
2023/08/02 06:37:01;;;;;;;;;;;18.20;99.90;;;;;;4969800;28;20560;-61
2023/08/02 06:39:28;;;;;;;;;;;18.30;99.90;;;;;;4969590;28;19930;-60
2023/08/02 06:41:54;;;;;;;;;;;18.20;99.90;;;;;;4968486;28;19922;-60
2023/08/02 06:44:21;;;;;;;;;;;18.10;99.90;;;;;;4969824;28;20223;-60
2023/08/02 06:46:48;;;;;;;;;;;18.10;99.90;;;;;;4968222;28;19929;-60
2023/08/02 06:49:15;;;;;;;;;;;18.10;99.90;;;;;;4969256;28;19922;-60
2023/08/02 06:51:42;;;;;;;;;;;18.10;99.90;;;;;;4968704;28;19926;-60
2023/08/02 06:54:09;;;;;;;;;;;18.10;99.90;;;;;;4967727;28;19922;-60
2023/08/02 06:56:36;;;;;;;;;;;18.10;99.90;;;;;;4969005;28;19945;-60
2023/08/02 06:59:03;;;;;;;;;;;18.00;99.90;;;;;;4969548;28;19937;-60
2023/08/02 07:01:29;;;;;;;;;;;18.00;99.90;;;;;;4968505;28;19933;-60
2023/08/02 07:03:56;;;;;;;;;;;18.10;99.90;;;;;;4968918;28;20012;-60
2023/08/02 07:06:23;;;;;;;;;;;18.10;99.90;;;;;;4968779;28;20367;-60
2023/08/02 07:08:50;;;;;;;;;;;18.10;99.90;;;;;;4969553;28;19922;-60
2023/08/02 07:11:18;;;;;;;;;;;18.10;99.90;;;;;;4969198;28;19973;-59
2023/08/02 07:14:02;;;;;;;;;;;18.10;99.90;;;;;;4969465;28;19932;-61
2023/08/02 07:16:29;;;;;;;;;;;18.10;99.90;;;;;;4966808;28;19930;-59
2023/08/02 07:18:55;;;;;;;;;;;18.00;99.90;;;;;;4968622;28;20341;-60
2023/08/02 07:21:22;;;;;;;;;;;17.80;99.90;;;;;;4968835;28;19932;-60
2023/08/02 07:23:49;;;;;;;;;;;17.80;99.90;;;;;;4969401;28;19929;-60
2023/08/02 07:26:16;;;;;;;;;;;17.70;99.90;;;;;;4969014;28;19937;-61
2023/08/02 07:28:43;;;;;;;;;;;17.50;99.90;;;;;;4969422;28;19926;-61
2023/08/02 07:31:10;;;;;;;;;;;17.40;99.90;;;;;;4968815;28;19928;-60
2023/08/02 07:33:38;;;;;;;;;;;17.50;99.90;;;;;;4969046;28;20007;-61
2023/08/02 07:36:05;;;;;;;;;;;17.40;99.90;;;;;;4968934;28;19926;-60
2023/08/02 07:38:31;;;;;;;;;;;17.40;99.90;;;;;;4967286;28;19922;-60
2023/08/02 07:41:01;;;;;;;;;;;17.40;99.90;;;;;;4968856;28;19932;-61
2023/08/02 07:43:28;;;;;;;;;;;17.50;99.90;;;;;;4968688;28;19926;-60
2023/08/02 07:45:55;;;;;;;;;;;17.40;99.90;;;;;;4968969;28;20286;-60
2023/08/02 07:48:22;;;;;;;;;;;17.50;99.90;;;;;;4968371;28;19976;-59
2023/08/02 07:50:48;;;;;;;;;;;17.60;99.90;;;;;;4968813;28;19933;-59
2023/08/02 07:53:15;;;;;;;;;;;17.70;99.90;;;;;;4967155;28;20254;-59
2023/08/02 07:55:42;;;;;;;;;;;17.70;99.90;;;;;;4968552;28;19980;-59
2023/08/02 07:58:09;;;;;;;;;;;17.80;99.90;;;;;;4967890;28;19929;-60
2023/08/02 08:00:36;;;;;;;;;;;17.80;99.90;;;;;;4977784;28;20381;-60
2023/08/02 08:03:03;;;;;;;;;;;17.80;99.90;;;;;;4967942;28;20017;-59
2023/08/02 08:05:30;;;;;;;;;;;17.90;99.90;;;;;;4968476;28;19961;-60
2023/08/02 08:07:57;;;;;;;;;;;17.90;99.90;;;;;;4967982;28;19926;-60
2023/08/02 08:10:24;;;;;;;;;;;18.10;99.90;;;;;;4983151;28;20182;-60
2023/08/02 08:12:50;;;;;;;;;;;18.10;99.90;;;;;;4967774;28;19953;-60
2023/08/02 08:15:17;;;;;;;;;;;18.20;99.90;;;;;;4968136;28;19934;-60
2023/08/02 08:17:44;;;;;;;;;;;18.20;99.90;;;;;;4982742;28;19930;-60
2023/08/02 08:20:11;;;;;;;;;;;18.30;99.90;;;;;;4968571;28;19926;-59
2023/08/02 08:22:38;;;;;;;;;;;18.30;99.90;;;;;;4968983;28;19921;-59
2023/08/02 08:25:05;;;;;;;;;;;18.20;99.90;;;;;;4970981;28;19922;-59
2023/08/02 08:27:32;;;;;;;;;;;18.30;99.90;;;;;;4971686;28;19926;-59
2023/08/02 08:29:58;;;;;;;;;;;18.40;99.90;;;;;;4970593;28;20373;-60
2023/08/02 08:32:27;;;;;;;;;;;18.50;99.90;;;;;;4970330;28;19992;-60
2023/08/02 08:34:54;;;;;;;;;;;18.50;99.90;;;;;;4968843;28;20345;-58
2023/08/02 08:37:21;;;;;;;;;;;18.60;99.90;;;;;;4967186;28;19922;-59
2023/08/02 08:39:48;;;;;;;;;;;18.60;99.90;;;;;;4964819;28;19938;-59
2023/08/02 08:42:33;;;;;;;;;;;18.60;99.90;;;;;;4970211;28;20162;-58
2023/08/02 08:45:00;;;;;;;;;;;18.60;99.90;;;;;;4970077;28;19922;-59
2023/08/02 08:47:27;;;;;;;;;;;18.60;99.90;;;;;;4967487;28;19922;-59
2023/08/02 08:49:59;;;;;;;;;;;18.60;99.90;;;;;;4965967;28;19922;-58
2023/08/02 08:52:26;;;;;;;;;;;18.80;99.90;;;;;;4966381;28;19981;-59
2023/08/02 08:54:53;;;;;;;;;;;18.80;99.90;;;;;;4966197;28;19929;-59
2023/08/02 08:57:20;;;;;;;;;;;18.90;99.90;;;;;;4966633;28;20379;-59
2023/08/02 08:59:46;;;;;;;;;;;19.00;99.90;;;;;;4966638;28;19922;-59
2023/08/02 09:02:13;;;;;;;;;;;19.10;99.90;;;;;;4968189;28;19921;-59
2023/08/02 09:04:40;;;;;;;;;;;19.10;99.90;;;;;;4967956;28;19937;-59
2023/08/02 09:07:07;;;;;;;;;;;19.40;99.90;;;;;;4969906;28;19922;-58
2023/08/02 09:09:35;;;;;;;;;;;19.50;99.90;;;;;;4969509;28;19922;-59
2023/08/02 09:12:02;;;;;;;;;;;19.60;99.90;;;;;;4984651;28;19960;-59
2023/08/02 09:14:29;;;;;;;;;;;19.60;99.90;;;;;;4970060;28;19937;-59
2023/08/02 09:17:02;;;;;;;;;;;19.30;99.90;;;;;;4970017;28;19926;-58
2023/08/02 09:19:33;;;;;;;;;;;18.60;99.90;;;;;;4970614;28;20057;-58
2023/08/02 09:22:09;;;;;;;;;;;18.00;99.90;;;;;;4969350;28;19933;-59
2023/08/02 09:24:36;;;;;;;;;;;17.50;99.90;;;;;;4970261;28;19922;-59
2023/08/02 09:27:06;;;;;;;;;;;17.50;99.90;;;;;;4969764;28;19929;-59
2023/08/02 09:29:59;;;;;;;;;;;17.40;99.90;;;;;;4970344;28;20294;-59
2023/08/02 09:32:26;;;;;;;;;;;17.30;99.90;;;;;;4969741;28;19922;-58
2023/08/02 09:34:57;;;;;;;;;;;17.40;99.90;;;;;;4970827;28;20040;-59
2023/08/02 09:37:31;;;;;;;;;;;17.40;99.90;;;;;;4968662;28;19922;-59
2023/08/02 09:39:58;;;;;;;;;;;17.50;99.90;;;;;;4969876;28;20352;-61
2023/08/02 09:42:27;;;;;;;;;;;17.40;99.90;;;;;;4968493;28;20017;-59
2023/08/02 09:44:55;;;;;;;;;;;17.60;99.90;;;;;;4969110;28;19922;-58
2023/08/02 09:47:22;;;;;;;;;;;17.80;99.90;;;;;;4967716;28;19985;-60
2023/08/02 09:50:07;;;;;;;;;;;18.00;99.90;;;;;;4969496;28;19922;-60
2023/08/02 09:52:34;;;;;;;;;;;18.10;99.90;;;;;;4969018;28;19922;-59
2023/08/02 09:55:01;;;;;;;;;;;18.20;99.90;;;;;;4969710;28;20544;-59
2023/08/02 09:57:28;;;;;;;;;;;18.30;99.90;;;;;;4969063;28;19922;-59
2023/08/02 09:59:55;;;;;;;;;;;18.20;99.90;;;;;;4969667;28;19930;-59
2023/08/02 10:02:22;;;;;;;;;;;18.40;99.90;;;;;;4968609;28;19922;-60
2023/08/02 10:04:49;;;;;;;;;;;18.60;99.90;;;;;;4969623;28;19922;-60
2023/08/02 10:07:16;;;;;;;;;;;18.90;99.90;;;;;;4967344;28;19962;-61
2023/08/02 10:09:42;;;;;;;;;;;19.40;99.90;;;;;;4968507;28;20297;-58
2023/08/02 10:12:13;;;;;;;;;;;19.60;99.90;;;;;;4967455;28;19933;-60
2023/08/02 10:14:40;;;;;;;;;;;19.50;99.90;;;;;;4959831;28;19922;-58
2023/08/02 10:17:07;;;;;;;;;;;19.30;99.90;;;;;;4969319;28;20536;-59
2023/08/02 10:19:34;;;;;;;;;;;19.30;99.90;;;;;;4968020;28;19922;-60
2023/08/02 10:22:01;;;;;;;;;;;19.40;99.90;;;;;;4968637;28;19985;-58
2023/08/02 10:24:28;;;;;;;;;;;19.80;99.90;;;;;;4968376;28;20320;-59
2023/08/02 10:26:55;;;;;;;;;;;20.30;99.90;;;;;;4624488;28;10000196;-60
2023/08/02 10:29:22;;;;;;;;;;;20.80;99.90;;;;;;4967738;28;19925;-59
2023/08/02 10:31:49;;;;;;;;;;;21.10;99.90;;;;;;4968983;28;20377;-59
2023/08/02 10:34:34;;;;;;;;;;;21.00;99.90;;;;;;4968632;28;20262;-58
2023/08/02 10:37:01;;;;;;;;;;;20.50;99.90;;;;;;4968909;28;20348;-58
2023/08/02 10:39:57;;;;;;;;;;;20.10;99.90;;;;;;4967597;28;20428;-59
2023/08/02 10:42:25;;;;;;;;;;;20.00;99.90;;;;;;4972446;28;19992;-57
2023/08/02 10:44:55;;;;;;;;;;;19.80;99.90;;;;;;4967810;28;19933;-59
2023/08/02 10:47:28;;;;;;;;;;;19.60;99.90;;;;;;4969021;28;19926;-59
2023/08/02 10:49:55;;;;;;;;;;;19.40;99.90;;;;;;4968201;28;19922;-59
2023/08/02 10:52:29;;;;;;;;;;;19.30;99.90;;;;;;4969179;28;19953;-59
2023/08/02 10:55:08;;;;;;;;;;;19.20;99.90;;;;;;4967592;28;19922;-58
2023/08/02 10:57:35;;;;;;;;;;;19.50;99.90;;;;;;4972624;28;19922;-59
2023/08/02 11:00:14;;;;;;;;;;;19.50;99.90;;;;;;4972068;28;19974;-58
2023/08/02 11:02:48;;;;;;;;;;;19.50;99.90;;;;;;4971660;28;19922;-57
2023/08/02 11:05:16;;;;;;;;;;;19.50;99.90;;;;;;4971826;28;20297;-58
2023/08/02 11:07:44;;;;;;;;;;;19.60;99.90;;;;;;4972781;28;19933;-58
2023/08/02 11:10:11;;;;;;;;;;;19.60;99.90;;;;;;4970505;28;20377;-59
2023/08/02 11:12:38;;;;;;;;;;;19.70;99.90;;;;;;4971489;28;19937;-59
2023/08/02 11:15:14;;;;;;;;;;;19.80;99.90;;;;;;4972140;28;19922;-59
2023/08/02 11:17:40;;;;;;;;;;;19.90;99.90;;;;;;4972424;28;20337;-59
2023/08/02 11:20:23;;;;;;;;;;;19.90;99.90;;;;;;4971942;28;19929;-59
2023/08/02 11:22:50;;;;;;;;;;;19.90;99.90;;;;;;4974445;28;19977;-59
2023/08/02 11:25:20;;;;;;;;;;;20.00;99.90;;;;;;4972187;28;19926;-59
2023/08/02 11:28:02;;;;;;;;;;;20.10;99.90;;;;;;4972179;28;19976;-59
2023/08/02 11:30:29;;;;;;;;;;;20.10;99.90;;;;;;4971933;28;20147;-60
2023/08/02 11:32:57;;;;;;;;;;;20.20;99.90;;;;;;4972195;28;20374;-58
2023/08/02 11:35:24;;;;;;;;;;;20.10;99.90;;;;;;4971900;28;19922;-58
2023/08/02 11:37:51;;;;;;;;;;;19.90;99.90;;;;;;4970566;28;19921;-60
2023/08/02 11:40:18;;;;;;;;;;;20.00;99.90;;;;;;4971916;28;19961;-59
2023/08/02 11:42:53;;;;;;;;;;;20.10;99.90;;;;;;4971819;28;19922;-59
2023/08/02 11:45:28;;;;;;;;;;;20.00;99.90;;;;;;4971721;28;19988;-59
2023/08/02 11:47:55;;;;;;;;;;;19.90;99.90;;;;;;4970944;28;19922;-59
2023/08/02 11:50:34;;;;;;;;;;;19.80;99.90;;;;;;4971606;28;20385;-59
2023/08/02 11:53:02;;;;;;;;;;;19.90;99.90;;;;;;4971945;28;20420;-59
2023/08/02 11:55:29;;;;;;;;;;;19.70;99.90;;;;;;4971747;28;20285;-58
2023/08/02 11:57:56;;;;;;;;;;;19.50;99.90;;;;;;4970639;28;19922;-58
2023/08/02 12:00:23;;;;;;;;;;;19.40;99.90;;;;;;4970492;28;19922;-59
2023/08/02 12:02:49;;;;;;;;;;;19.60;99.90;;;;;;4971863;28;19945;-59
2023/08/02 12:05:20;;;;;;;;;;;19.60;99.90;;;;;;4971447;28;19965;-58
2023/08/02 12:07:47;;;;;;;;;;;19.50;99.90;;;;;;4970660;28;19922;-59
2023/08/02 12:10:25;;;;;;;;;;;19.40;99.90;;;;;;4971698;28;19929;-59
2023/08/02 12:12:52;;;;;;;;;;;19.40;99.90;;;;;;4971513;28;19925;-59
2023/08/02 12:15:19;;;;;;;;;;;19.60;99.90;;;;;;4970294;28;19933;-62
2023/08/02 12:17:46;;;;;;;;;;;19.80;99.90;;;;;;4971355;28;20014;-60
2023/08/02 12:20:29;;;;;;;;;;;19.90;99.90;;;;;;4971761;28;19991;-61
2023/08/02 12:22:56;;;;;;;;;;;19.80;99.90;;;;;;4970329;28;20301;-60
2023/08/02 12:25:23;;;;;;;;;;;19.50;99.90;;;;;;4986310;28;19926;-60
2023/08/02 12:28:05;;;;;;;;;;;19.40;99.90;;;;;;4971040;28;19922;-60
2023/08/02 12:30:32;;;;;;;;;;;19.40;99.90;;;;;;4952190;29;19926;-60
2023/08/02 12:32:59;;;;;;;;;;;19.30;99.90;;;;;;4970085;28;20213;-60
2023/08/02 12:35:25;;;;;;;;;;;19.30;99.90;;;;;;4971568;28;19922;-60
2023/08/02 12:37:52;;;;;;;;;;;19.20;99.90;;;;;;4970808;28;19926;-60
2023/08/02 12:40:19;;;;;;;;;;;18.70;99.90;;;;;;4971064;28;19922;-60
2023/08/02 12:42:46;;;;;;;;;;;18.20;99.90;;;;;;4970622;28;19922;-59
2023/08/02 12:45:28;;;;;;;;;;;18.10;99.90;;;;;;4968929;28;19977;-60
2023/08/02 12:47:54;;;;;;;;;;;18.10;99.90;;;;;;4970662;28;19929;-60
2023/08/02 12:50:21;;;;;;;;;;;18.00;99.90;;;;;;4970875;28;20381;-63
2023/08/02 12:52:51;;;;;;;;;;;17.90;99.90;;;;;;4970848;28;19956;-60
2023/08/02 12:55:18;;;;;;;;;;;17.80;99.90;;;;;;4970774;28;20190;-60
2023/08/02 12:57:45;;;;;;;;;;;17.90;99.90;;;;;;4970561;28;20289;-60
2023/08/02 13:00:11;;;;;;;;;;;17.80;99.90;;;;;;4970687;28;19965;-60
2023/08/02 13:02:39;;;;;;;;;;;17.80;99.90;;;;;;4970541;28;19929;-60
2023/08/02 13:05:07;;;;;;;;;;;17.70;99.90;;;;;;4970475;28;20849;-60
2023/08/02 13:07:34;;;;;;;;;;;17.60;99.90;;;;;;4970111;28;20381;-60
2023/08/02 13:10:10;;;;;;;;;;;17.50;99.90;;;;;;4970584;28;19965;-59
2023/08/02 13:12:37;;;;;;;;;;;17.40;99.90;;;;;;4970309;28;19922;-60
2023/08/02 13:15:04;;;;;;;;;;;17.40;99.90;;;;;;4970389;28;20436;-60
2023/08/02 13:17:34;;;;;;;;;;;17.30;99.90;;;;;;4968969;28;19937;-60
2023/08/02 13:20:02;;;;;;;;;;;17.40;99.90;;;;;;4970332;28;19925;-60
2023/08/02 13:22:29;;;;;;;;;;;17.50;99.90;;;;;;4970371;28;19922;-60
2023/08/02 13:24:55;;;;;;;;;;;17.50;99.90;;;;;;4970054;28;20342;-60
2023/08/02 13:27:22;;;;;;;;;;;17.50;99.90;;;;;;4970896;28;19930;-60
2023/08/02 13:29:49;;;;;;;;;;;17.40;99.90;;;;;;4969624;28;19985;-61
2023/08/02 13:32:16;;;;;;;;;;;17.40;99.90;;;;;;4970690;28;19992;-60
2023/08/02 13:34:42;;;;;;;;;;;17.30;99.90;;;;;;4969921;28;19933;-60
2023/08/02 13:37:09;;;;;;;;;;;17.30;99.90;;;;;;4969853;28;19922;-60
2023/08/02 13:39:36;;;;;;;;;;;17.30;99.90;;;;;;4969537;28;19944;-60
2023/08/02 13:42:03;;;;;;;;;;;17.30;99.90;;;;;;4969822;28;20312;-60
2023/08/02 13:44:30;;;;;;;;;;;17.20;99.90;;;;;;4968245;28;19921;-61
2023/08/02 13:46:57;;;;;;;;;;;17.30;99.90;;;;;;4970161;28;19929;-61
2023/08/02 13:49:26;;;;;;;;;;;17.30;99.90;;;;;;4969569;28;19930;-60
2023/08/02 13:51:53;;;;;;;;;;;17.40;99.90;;;;;;4969931;28;19930;-60
2023/08/02 13:54:19;;;;;;;;;;;17.40;99.90;;;;;;4984955;28;19922;-60
2023/08/02 13:56:46;;;;;;;;;;;17.50;99.90;;;;;;4969929;28;20381;-61
2023/08/02 13:59:13;;;;;;;;;;;17.50;99.90;;;;;;4969306;28;19922;-60
2023/08/02 14:01:39;;;;;;;;;;;17.60;99.90;;;;;;4969655;28;19922;-60
2023/08/02 14:04:06;;;;;;;;;;;17.70;99.90;;;;;;4969413;28;20251;-61
2023/08/02 14:06:33;;;;;;;;;;;17.70;99.90;;;;;;4969656;28;19977;-61
2023/08/02 14:09:00;;;;;;;;;;;17.80;99.90;;;;;;4969730;28;20092;-61
2023/08/02 14:11:26;;;;;;;;;;;17.80;99.90;;;;;;4968113;28;19933;-61
2023/08/02 14:13:53;;;;;;;;;;;17.80;99.90;;;;;;4974258;28;19937;-62
2023/08/02 14:16:20;;;;;;;;;;;17.80;99.90;;;;;;4974434;28;19929;-61
2023/08/02 14:18:47;;;;;;;;;;;17.70;99.90;;;;;;4972048;28;20125;-62
2023/08/02 14:21:13;;;;;;;;;;;17.80;99.90;;;;;;4970226;28;19930;-61